sensor_id;sensor_type;location;lat;lon;timestamp;P1;durP1;ratioP1;P2;durP2;ratioP2
62362;SDS011;48396;48.426;1.500;2022-12-18T00:00:40;24.98;;;9.93;;
62362;SDS011;48396;48.426;1.500;2022-12-18T00:03:07;24.92;;;10.45;;
62362;SDS011;48396;48.426;1.500;2022-12-18T00:05:33;24.98;;;10.75;;
62362;SDS011;48396;48.426;1.500;2022-12-18T00:08:00;28.15;;;11.85;;
62362;SDS011;48396;48.426;1.500;2022-12-18T00:10:27;25.50;;;11.20;;
62362;SDS011;48396;48.426;1.500;2022-12-18T00:12:53;27.95;;;11.75;;
62362;SDS011;48396;48.426;1.500;2022-12-18T00:15:19;28.02;;;12.82;;
62362;SDS011;48396;48.426;1.500;2022-12-18T00:17:45;26.92;;;11.70;;
62362;SDS011;48396;48.426;1.500;2022-12-18T00:20:11;27.08;;;12.00;;
62362;SDS011;48396;48.426;1.500;2022-12-18T00:22:37;27.55;;;11.82;;
62362;SDS011;48396;48.426;1.500;2022-12-18T00:25:02;26.90;;;11.63;;
62362;SDS011;48396;48.426;1.500;2022-12-18T00:27:28;23.70;;;10.35;;
62362;SDS011;48396;48.426;1.500;2022-12-18T00:29:54;25.65;;;10.55;;
62362;SDS011;48396;48.426;1.500;2022-12-18T00:32:20;25.65;;;11.23;;
62362;SDS011;48396;48.426;1.500;2022-12-18T00:34:46;29.08;;;12.48;;
62362;SDS011;48396;48.426;1.500;2022-12-18T00:37:11;23.33;;;10.13;;
62362;SDS011;48396;48.426;1.500;2022-12-18T00:39:37;24.42;;;11.07;;
62362;SDS011;48396;48.426;1.500;2022-12-18T00:42:03;27.92;;;11.65;;
62362;SDS011;48396;48.426;1.500;2022-12-18T00:44:47;26.08;;;11.95;;
62362;SDS011;48396;48.426;1.500;2022-12-18T00:47:13;26.75;;;10.85;;
62362;SDS011;48396;48.426;1.500;2022-12-18T00:49:38;27.67;;;11.60;;
62362;SDS011;48396;48.426;1.500;2022-12-18T00:52:04;26.65;;;10.85;;
62362;SDS011;48396;48.426;1.500;2022-12-18T00:54:30;27.85;;;12.48;;
62362;SDS011;48396;48.426;1.500;2022-12-18T00:56:56;28.25;;;11.70;;
62362;SDS011;48396;48.426;1.500;2022-12-18T00:59:21;27.70;;;11.57;;
62362;SDS011;48396;48.426;1.500;2022-12-18T01:01:48;28.30;;;12.55;;
62362;SDS011;48396;48.426;1.500;2022-12-18T01:04:14;30.23;;;13.27;;
62362;SDS011;48396;48.426;1.500;2022-12-18T01:06:40;26.95;;;11.85;;
62362;SDS011;48396;48.426;1.500;2022-12-18T01:09:06;30.25;;;12.60;;
62362;SDS011;48396;48.426;1.500;2022-12-18T01:11:31;26.40;;;11.95;;
62362;SDS011;48396;48.426;1.500;2022-12-18T01:13:57;29.05;;;12.90;;
62362;SDS011;48396;48.426;1.500;2022-12-18T01:16:24;28.63;;;13.13;;
62362;SDS011;48396;48.426;1.500;2022-12-18T01:18:53;28.73;;;11.77;;
62362;SDS011;48396;48.426;1.500;2022-12-18T01:21:19;27.00;;;11.23;;
62362;SDS011;48396;48.426;1.500;2022-12-18T01:23:47;27.02;;;12.07;;
62362;SDS011;48396;48.426;1.500;2022-12-18T01:26:17;28.23;;;12.52;;
62362;SDS011;48396;48.426;1.500;2022-12-18T01:28:43;29.30;;;12.68;;
62362;SDS011;48396;48.426;1.500;2022-12-18T01:33:47;27.83;;;11.98;;
62362;SDS011;48396;48.426;1.500;2022-12-18T01:36:33;24.45;;;11.63;;
62362;SDS011;48396;48.426;1.500;2022-12-18T01:39:05;30.45;;;13.73;;
62362;SDS011;48396;48.426;1.500;2022-12-18T01:47:30;27.55;;;11.98;;
62362;SDS011;48396;48.426;1.500;2022-12-18T01:50:05;29.95;;;12.43;;
62362;SDS011;48396;48.426;1.500;2022-12-18T01:52:45;28.10;;;12.82;;
62362;SDS011;48396;48.426;1.500;2022-12-18T01:55:16;30.88;;;13.60;;
62362;SDS011;48396;48.426;1.500;2022-12-18T01:57:44;27.17;;;11.95;;
62362;SDS011;48396;48.426;1.500;2022-12-18T02:00:15;29.83;;;12.70;;
62362;SDS011;48396;48.426;1.500;2022-12-18T02:02:44;31.02;;;14.13;;
62362;SDS011;48396;48.426;1.500;2022-12-18T02:05:11;28.55;;;12.95;;
62362;SDS011;48396;48.426;1.500;2022-12-18T02:16:07;33.78;;;14.77;;
62362;SDS011;48396;48.426;1.500;2022-12-18T02:18:41;31.58;;;14.68;;
62362;SDS011;48396;48.426;1.500;2022-12-18T02:21:28;30.30;;;13.87;;
62362;SDS011;48396;48.426;1.500;2022-12-18T02:24:15;34.30;;;14.13;;
62362;SDS011;48396;48.426;1.500;2022-12-18T02:29:10;31.77;;;14.32;;
62362;SDS011;48396;48.426;1.500;2022-12-18T02:31:42;31.60;;;13.70;;
62362;SDS011;48396;48.426;1.500;2022-12-18T02:34:12;27.50;;;12.35;;
62362;SDS011;48396;48.426;1.500;2022-12-18T02:36:40;28.60;;;12.48;;
62362;SDS011;48396;48.426;1.500;2022-12-18T02:39:09;32.97;;;15.32;;
62362;SDS011;48396;48.426;1.500;2022-12-18T02:41:37;31.45;;;13.20;;
62362;SDS011;48396;48.426;1.500;2022-12-18T02:44:07;29.52;;;13.70;;
62362;SDS011;48396;48.426;1.500;2022-12-18T02:46:36;27.30;;;13.10;;
62362;SDS011;48396;48.426;1.500;2022-12-18T02:52:03;29.85;;;13.68;;
62362;SDS011;48396;48.426;1.500;2022-12-18T03:00:12;31.10;;;14.40;;
62362;SDS011;48396;48.426;1.500;2022-12-18T03:05:31;29.08;;;13.40;;
62362;SDS011;48396;48.426;1.500;2022-12-18T03:08:16;29.05;;;13.75;;
62362;SDS011;48396;48.426;1.500;2022-12-18T03:10:57;27.50;;;12.73;;
62362;SDS011;48396;48.426;1.500;2022-12-18T03:13:29;32.05;;;14.45;;
62362;SDS011;48396;48.426;1.500;2022-12-18T03:15:57;30.75;;;13.85;;
62362;SDS011;48396;48.426;1.500;2022-12-18T03:18:27;30.00;;;14.13;;
62362;SDS011;48396;48.426;1.500;2022-12-18T03:21:09;29.10;;;13.60;;
62362;SDS011;48396;48.426;1.500;2022-12-18T03:23:43;26.50;;;12.25;;
62362;SDS011;48396;48.426;1.500;2022-12-18T03:26:15;30.27;;;13.35;;
62362;SDS011;48396;48.426;1.500;2022-12-18T03:28:56;28.45;;;14.05;;
62362;SDS011;48396;48.426;1.500;2022-12-18T03:31:25;31.55;;;15.32;;
62362;SDS011;48396;48.426;1.500;2022-12-18T03:33:57;30.98;;;13.45;;
62362;SDS011;48396;48.426;1.500;2022-12-18T03:36:26;29.48;;;14.38;;
62362;SDS011;48396;48.426;1.500;2022-12-18T03:38:55;31.23;;;14.23;;
62362;SDS011;48396;48.426;1.500;2022-12-18T03:41:27;28.60;;;13.75;;
62362;SDS011;48396;48.426;1.500;2022-12-18T03:44:29;31.90;;;15.05;;
62362;SDS011;48396;48.426;1.500;2022-12-18T03:49:54;30.42;;;13.65;;
62362;SDS011;48396;48.426;1.500;2022-12-18T03:52:32;30.85;;;14.73;;
62362;SDS011;48396;48.426;1.500;2022-12-18T03:55:20;28.70;;;14.00;;
62362;SDS011;48396;48.426;1.500;2022-12-18T03:57:48;28.90;;;13.50;;
62362;SDS011;48396;48.426;1.500;2022-12-18T04:00:15;31.95;;;15.70;;
62362;SDS011;48396;48.426;1.500;2022-12-18T04:02:44;30.27;;;13.88;;
62362;SDS011;48396;48.426;1.500;2022-12-18T04:05:14;31.73;;;14.65;;
62362;SDS011;48396;48.426;1.500;2022-12-18T04:07:42;34.22;;;15.80;;
62362;SDS011;48396;48.426;1.500;2022-12-18T04:10:10;32.53;;;16.30;;
62362;SDS011;48396;48.426;1.500;2022-12-18T04:12:37;35.20;;;15.80;;
62362;SDS011;48396;48.426;1.500;2022-12-18T04:15:04;32.40;;;16.30;;
62362;SDS011;48396;48.426;1.500;2022-12-18T04:17:30;29.95;;;14.77;;
62362;SDS011;48396;48.426;1.500;2022-12-18T04:19:56;30.27;;;15.38;;
62362;SDS011;48396;48.426;1.500;2022-12-18T04:22:22;32.13;;;15.40;;
62362;SDS011;48396;48.426;1.500;2022-12-18T04:24:47;32.95;;;15.80;;
62362;SDS011;48396;48.426;1.500;2022-12-18T04:27:13;30.60;;;14.60;;
62362;SDS011;48396;48.426;1.500;2022-12-18T04:29:39;31.27;;;14.85;;
62362;SDS011;48396;48.426;1.500;2022-12-18T04:32:05;30.45;;;14.27;;
62362;SDS011;48396;48.426;1.500;2022-12-18T04:34:30;33.47;;;15.57;;
62362;SDS011;48396;48.426;1.500;2022-12-18T04:36:56;31.23;;;15.68;;
62362;SDS011;48396;48.426;1.500;2022-12-18T04:39:22;34.03;;;15.82;;
62362;SDS011;48396;48.426;1.500;2022-12-18T04:41:48;33.30;;;15.65;;
62362;SDS011;48396;48.426;1.500;2022-12-18T04:44:13;30.83;;;14.68;;
62362;SDS011;48396;48.426;1.500;2022-12-18T04:46:39;31.67;;;16.33;;
62362;SDS011;48396;48.426;1.500;2022-12-18T04:49:05;33.80;;;15.75;;
62362;SDS011;48396;48.426;1.500;2022-12-18T04:51:31;30.77;;;15.32;;
62362;SDS011;48396;48.426;1.500;2022-12-18T04:53:56;34.10;;;15.05;;
62362;SDS011;48396;48.426;1.500;2022-12-18T04:56:22;32.03;;;15.40;;
62362;SDS011;48396;48.426;1.500;2022-12-18T04:58:48;31.08;;;14.82;;
62362;SDS011;48396;48.426;1.500;2022-12-18T05:01:15;33.85;;;15.60;;
62362;SDS011;48396;48.426;1.500;2022-12-18T05:03:42;34.45;;;17.35;;
62362;SDS011;48396;48.426;1.500;2022-12-18T05:06:08;33.55;;;16.17;;
62362;SDS011;48396;48.426;1.500;2022-12-18T05:08:35;32.90;;;14.70;;
62362;SDS011;48396;48.426;1.500;2022-12-18T05:11:05;30.73;;;15.43;;
62362;SDS011;48396;48.426;1.500;2022-12-18T05:13:36;32.10;;;14.45;;
62362;SDS011;48396;48.426;1.500;2022-12-18T05:16:03;33.97;;;15.93;;
62362;SDS011;48396;48.426;1.500;2022-12-18T05:18:30;30.30;;;15.07;;
62362;SDS011;48396;48.426;1.500;2022-12-18T05:20:56;36.22;;;17.33;;
62362;SDS011;48396;48.426;1.500;2022-12-18T05:23:22;36.88;;;16.75;;
62362;SDS011;48396;48.426;1.500;2022-12-18T05:25:59;33.58;;;16.08;;
62362;SDS011;48396;48.426;1.500;2022-12-18T05:28:28;32.92;;;16.25;;
62362;SDS011;48396;48.426;1.500;2022-12-18T05:30:57;35.15;;;17.02;;
62362;SDS011;48396;48.426;1.500;2022-12-18T05:33:26;37.22;;;16.27;;
62362;SDS011;48396;48.426;1.500;2022-12-18T05:35:54;34.92;;;16.60;;
62362;SDS011;48396;48.426;1.500;2022-12-18T05:38:22;34.78;;;17.08;;
62362;SDS011;48396;48.426;1.500;2022-12-18T05:40:49;35.83;;;16.50;;
62362;SDS011;48396;48.426;1.500;2022-12-18T05:43:15;30.98;;;15.23;;
62362;SDS011;48396;48.426;1.500;2022-12-18T05:45:41;32.83;;;15.18;;
62362;SDS011;48396;48.426;1.500;2022-12-18T05:48:08;32.15;;;14.40;;
62362;SDS011;48396;48.426;1.500;2022-12-18T05:50:38;32.33;;;15.18;;
62362;SDS011;48396;48.426;1.500;2022-12-18T05:53:05;35.05;;;16.05;;
62362;SDS011;48396;48.426;1.500;2022-12-18T05:55:33;32.53;;;15.50;;
62362;SDS011;48396;48.426;1.500;2022-12-18T05:57:59;31.67;;;15.00;;
62362;SDS011;48396;48.426;1.500;2022-12-18T06:00:25;32.78;;;14.55;;
62362;SDS011;48396;48.426;1.500;2022-12-18T06:02:51;33.85;;;14.90;;
62362;SDS011;48396;48.426;1.500;2022-12-18T06:05:17;36.17;;;15.27;;
62362;SDS011;48396;48.426;1.500;2022-12-18T06:07:43;35.03;;;15.65;;
62362;SDS011;48396;48.426;1.500;2022-12-18T06:10:09;36.13;;;16.63;;
62362;SDS011;48396;48.426;1.500;2022-12-18T06:12:35;36.47;;;16.02;;
62362;SDS011;48396;48.426;1.500;2022-12-18T06:15:00;35.60;;;16.27;;
62362;SDS011;48396;48.426;1.500;2022-12-18T06:17:31;35.55;;;16.35;;
62362;SDS011;48396;48.426;1.500;2022-12-18T06:19:57;36.90;;;15.55;;
62362;SDS011;48396;48.426;1.500;2022-12-18T06:22:23;35.15;;;15.95;;
62362;SDS011;48396;48.426;1.500;2022-12-18T06:24:49;36.42;;;15.77;;
62362;SDS011;48396;48.426;1.500;2022-12-18T06:27:14;36.95;;;16.02;;
62362;SDS011;48396;48.426;1.500;2022-12-18T06:29:40;33.25;;;16.73;;
62362;SDS011;48396;48.426;1.500;2022-12-18T06:32:06;37.95;;;17.27;;
62362;SDS011;48396;48.426;1.500;2022-12-18T06:34:32;33.67;;;15.27;;
62362;SDS011;48396;48.426;1.500;2022-12-18T06:36:59;32.50;;;15.10;;
62362;SDS011;48396;48.426;1.500;2022-12-18T06:39:26;33.10;;;14.52;;
62362;SDS011;48396;48.426;1.500;2022-12-18T06:41:52;33.03;;;15.13;;
62362;SDS011;48396;48.426;1.500;2022-12-18T06:44:18;37.13;;;16.23;;
62362;SDS011;48396;48.426;1.500;2022-12-18T06:46:44;34.03;;;15.52;;
62362;SDS011;48396;48.426;1.500;2022-12-18T06:49:10;32.90;;;15.48;;
62362;SDS011;48396;48.426;1.500;2022-12-18T06:51:36;33.15;;;15.30;;
62362;SDS011;48396;48.426;1.500;2022-12-18T06:54:02;32.03;;;14.82;;
62362;SDS011;48396;48.426;1.500;2022-12-18T06:56:28;35.33;;;15.98;;
62362;SDS011;48396;48.426;1.500;2022-12-18T06:58:54;34.22;;;15.38;;
62362;SDS011;48396;48.426;1.500;2022-12-18T07:01:20;34.70;;;14.88;;
62362;SDS011;48396;48.426;1.500;2022-12-18T07:03:46;31.25;;;14.75;;
62362;SDS011;48396;48.426;1.500;2022-12-18T07:06:16;30.60;;;14.48;;
62362;SDS011;48396;48.426;1.500;2022-12-18T07:08:44;35.75;;;14.90;;
62362;SDS011;48396;48.426;1.500;2022-12-18T07:11:10;32.38;;;15.18;;
62362;SDS011;48396;48.426;1.500;2022-12-18T07:13:37;30.38;;;14.43;;
62362;SDS011;48396;48.426;1.500;2022-12-18T07:16:03;30.67;;;14.38;;
62362;SDS011;48396;48.426;1.500;2022-12-18T07:18:40;30.45;;;13.50;;
62362;SDS011;48396;48.426;1.500;2022-12-18T07:21:07;31.50;;;15.38;;
62362;SDS011;48396;48.426;1.500;2022-12-18T07:23:34;33.08;;;14.88;;
62362;SDS011;48396;48.426;1.500;2022-12-18T07:26:02;32.13;;;15.13;;
62362;SDS011;48396;48.426;1.500;2022-12-18T07:28:29;30.48;;;14.60;;
62362;SDS011;48396;48.426;1.500;2022-12-18T07:30:55;31.00;;;15.43;;
62362;SDS011;48396;48.426;1.500;2022-12-18T07:33:21;35.13;;;16.08;;
62362;SDS011;48396;48.426;1.500;2022-12-18T07:35:47;35.53;;;18.13;;
62362;SDS011;48396;48.426;1.500;2022-12-18T07:38:12;33.53;;;15.63;;
62362;SDS011;48396;48.426;1.500;2022-12-18T07:40:38;34.88;;;16.38;;
62362;SDS011;48396;48.426;1.500;2022-12-18T07:43:04;33.45;;;17.05;;
62362;SDS011;48396;48.426;1.500;2022-12-18T07:45:30;34.97;;;16.08;;
62362;SDS011;48396;48.426;1.500;2022-12-18T07:47:55;33.50;;;16.25;;
62362;SDS011;48396;48.426;1.500;2022-12-18T07:50:21;35.70;;;16.30;;
62362;SDS011;48396;48.426;1.500;2022-12-18T07:52:47;32.42;;;15.43;;
62362;SDS011;48396;48.426;1.500;2022-12-18T07:55:13;34.50;;;17.23;;
62362;SDS011;48396;48.426;1.500;2022-12-18T07:57:39;36.15;;;17.67;;
62362;SDS011;48396;48.426;1.500;2022-12-18T08:00:05;32.92;;;15.90;;
62362;SDS011;48396;48.426;1.500;2022-12-18T08:02:32;34.30;;;16.40;;
62362;SDS011;48396;48.426;1.500;2022-12-18T08:04:57;35.55;;;15.93;;
62362;SDS011;48396;48.426;1.500;2022-12-18T08:07:24;33.20;;;17.65;;
62362;SDS011;48396;48.426;1.500;2022-12-18T08:09:50;32.03;;;16.42;;
62362;SDS011;48396;48.426;1.500;2022-12-18T08:12:16;34.10;;;16.42;;
62362;SDS011;48396;48.426;1.500;2022-12-18T08:14:41;33.63;;;16.33;;
62362;SDS011;48396;48.426;1.500;2022-12-18T08:17:07;32.13;;;16.00;;
62362;SDS011;48396;48.426;1.500;2022-12-18T08:19:33;34.50;;;16.42;;
62362;SDS011;48396;48.426;1.500;2022-12-18T08:21:59;33.88;;;17.88;;
62362;SDS011;48396;48.426;1.500;2022-12-18T08:24:24;35.75;;;16.75;;
62362;SDS011;48396;48.426;1.500;2022-12-18T08:26:50;37.20;;;18.38;;
62362;SDS011;48396;48.426;1.500;2022-12-18T08:29:16;33.80;;;17.52;;
62362;SDS011;48396;48.426;1.500;2022-12-18T08:31:42;31.83;;;15.38;;
62362;SDS011;48396;48.426;1.500;2022-12-18T08:34:08;34.28;;;16.88;;
62362;SDS011;48396;48.426;1.500;2022-12-18T08:36:34;34.65;;;16.02;;
62362;SDS011;48396;48.426;1.500;2022-12-18T08:39:00;30.25;;;16.02;;
62362;SDS011;48396;48.426;1.500;2022-12-18T08:41:26;35.22;;;17.73;;
62362;SDS011;48396;48.426;1.500;2022-12-18T08:43:51;32.25;;;15.07;;
62362;SDS011;48396;48.426;1.500;2022-12-18T08:46:37;34.10;;;16.20;;
62362;SDS011;48396;48.426;1.500;2022-12-18T08:49:06;32.85;;;16.25;;
62362;SDS011;48396;48.426;1.500;2022-12-18T08:51:33;34.63;;;17.38;;
62362;SDS011;48396;48.426;1.500;2022-12-18T08:53:59;33.22;;;16.42;;
62362;SDS011;48396;48.426;1.500;2022-12-18T08:56:25;34.47;;;17.83;;
62362;SDS011;48396;48.426;1.500;2022-12-18T08:58:52;33.92;;;16.15;;
62362;SDS011;48396;48.426;1.500;2022-12-18T09:01:18;33.97;;;17.10;;
62362;SDS011;48396;48.426;1.500;2022-12-18T09:03:45;33.50;;;16.85;;
62362;SDS011;48396;48.426;1.500;2022-12-18T09:06:15;34.88;;;17.42;;
62362;SDS011;48396;48.426;1.500;2022-12-18T09:08:43;34.45;;;17.60;;
62362;SDS011;48396;48.426;1.500;2022-12-18T09:11:19;34.22;;;17.15;;
62362;SDS011;48396;48.426;1.500;2022-12-18T09:13:50;34.00;;;16.83;;
62362;SDS011;48396;48.426;1.500;2022-12-18T09:16:16;33.20;;;16.38;;
62362;SDS011;48396;48.426;1.500;2022-12-18T09:18:42;29.80;;;14.55;;
62362;SDS011;48396;48.426;1.500;2022-12-18T09:21:12;34.22;;;17.50;;
62362;SDS011;48396;48.426;1.500;2022-12-18T09:23:43;34.10;;;16.30;;
62362;SDS011;48396;48.426;1.500;2022-12-18T09:26:09;34.55;;;16.17;;
62362;SDS011;48396;48.426;1.500;2022-12-18T09:28:35;31.90;;;15.32;;
62362;SDS011;48396;48.426;1.500;2022-12-18T09:31:07;30.98;;;16.15;;
62362;SDS011;48396;48.426;1.500;2022-12-18T09:33:34;30.67;;;15.95;;
62362;SDS011;48396;48.426;1.500;2022-12-18T09:36:02;28.85;;;14.75;;
62362;SDS011;48396;48.426;1.500;2022-12-18T09:38:29;34.67;;;16.83;;
62362;SDS011;48396;48.426;1.500;2022-12-18T09:43:47;33.67;;;16.25;;
62362;SDS011;48396;48.426;1.500;2022-12-18T09:46:24;33.80;;;16.85;;
62362;SDS011;48396;48.426;1.500;2022-12-18T09:48:54;32.53;;;16.77;;
62362;SDS011;48396;48.426;1.500;2022-12-18T09:51:37;34.15;;;16.35;;
62362;SDS011;48396;48.426;1.500;2022-12-18T09:54:12;30.92;;;15.95;;
62362;SDS011;48396;48.426;1.500;2022-12-18T09:56:43;32.80;;;16.90;;
62362;SDS011;48396;48.426;1.500;2022-12-18T09:59:43;34.35;;;16.40;;
62362;SDS011;48396;48.426;1.500;2022-12-18T10:02:18;30.83;;;15.93;;
62362;SDS011;48396;48.426;1.500;2022-12-18T10:04:59;32.65;;;16.70;;
62362;SDS011;48396;48.426;1.500;2022-12-18T10:10:27;31.77;;;15.82;;
62362;SDS011;48396;48.426;1.500;2022-12-18T10:15:58;34.75;;;17.42;;
62362;SDS011;48396;48.426;1.500;2022-12-18T10:21:09;30.88;;;16.20;;
62362;SDS011;48396;48.426;1.500;2022-12-18T10:23:51;32.78;;;16.20;;
62362;SDS011;48396;48.426;1.500;2022-12-18T10:26:38;33.03;;;16.20;;
62362;SDS011;48396;48.426;1.500;2022-12-18T10:29:12;32.47;;;16.73;;
62362;SDS011;48396;48.426;1.500;2022-12-18T10:31:39;30.23;;;15.10;;
62362;SDS011;48396;48.426;1.500;2022-12-18T10:34:08;31.85;;;16.33;;
62362;SDS011;48396;48.426;1.500;2022-12-18T10:36:35;31.85;;;16.17;;
62362;SDS011;48396;48.426;1.500;2022-12-18T10:39:14;30.85;;;15.18;;
62362;SDS011;48396;48.426;1.500;2022-12-18T10:41:47;30.30;;;15.32;;
62362;SDS011;48396;48.426;1.500;2022-12-18T10:44:20;32.45;;;15.77;;
62362;SDS011;48396;48.426;1.500;2022-12-18T10:46:50;33.10;;;16.55;;
62362;SDS011;48396;48.426;1.500;2022-12-18T10:49:26;31.55;;;14.93;;
62362;SDS011;48396;48.426;1.500;2022-12-18T10:54:39;32.63;;;14.57;;
62362;SDS011;48396;48.426;1.500;2022-12-18T11:00:27;32.08;;;15.68;;
62362;SDS011;48396;48.426;1.500;2022-12-18T11:02:54;33.22;;;16.67;;
62362;SDS011;48396;48.426;1.500;2022-12-18T11:05:25;31.45;;;15.85;;
62362;SDS011;48396;48.426;1.500;2022-12-18T11:07:52;30.13;;;14.82;;
62362;SDS011;48396;48.426;1.500;2022-12-18T11:10:22;31.23;;;14.90;;
62362;SDS011;48396;48.426;1.500;2022-12-18T11:13:12;28.10;;;13.38;;
62362;SDS011;48396;48.426;1.500;2022-12-18T11:15:43;29.30;;;14.50;;
62362;SDS011;48396;48.426;1.500;2022-12-18T11:18:27;32.03;;;14.57;;
62362;SDS011;48396;48.426;1.500;2022-12-18T11:23:36;28.90;;;13.85;;
62362;SDS011;48396;48.426;1.500;2022-12-18T11:26:09;28.52;;;14.43;;
62362;SDS011;48396;48.426;1.500;2022-12-18T11:28:36;30.60;;;14.27;;
62362;SDS011;48396;48.426;1.500;2022-12-18T11:31:09;28.17;;;14.18;;
62362;SDS011;48396;48.426;1.500;2022-12-18T11:33:42;31.15;;;14.57;;
62362;SDS011;48396;48.426;1.500;2022-12-18T11:36:14;28.30;;;14.68;;
62362;SDS011;48396;48.426;1.500;2022-12-18T11:38:41;26.27;;;12.50;;
62362;SDS011;48396;48.426;1.500;2022-12-18T11:43:50;29.45;;;14.48;;
62362;SDS011;48396;48.426;1.500;2022-12-18T11:46:18;28.30;;;13.70;;
62362;SDS011;48396;48.426;1.500;2022-12-18T11:51:43;28.33;;;14.98;;
62362;SDS011;48396;48.426;1.500;2022-12-18T11:54:14;26.42;;;12.90;;
62362;SDS011;48396;48.426;1.500;2022-12-18T12:10:56;27.08;;;13.13;;
62362;SDS011;48396;48.426;1.500;2022-12-18T12:14:39;24.85;;;11.68;;
62362;SDS011;48396;48.426;1.500;2022-12-18T12:19:06;29.23;;;14.55;;
62362;SDS011;48396;48.426;1.500;2022-12-18T12:22:00;28.00;;;14.00;;
62362;SDS011;48396;48.426;1.500;2022-12-18T12:30:26;31.08;;;15.02;;
62362;SDS011;48396;48.426;1.500;2022-12-18T12:33:13;27.55;;;13.00;;
62362;SDS011;48396;48.426;1.500;2022-12-18T12:35:46;27.00;;;13.43;;
62362;SDS011;48396;48.426;1.500;2022-12-18T12:38:42;28.88;;;13.68;;
62362;SDS011;48396;48.426;1.500;2022-12-18T12:41:16;25.55;;;12.55;;
62362;SDS011;48396;48.426;1.500;2022-12-18T12:44:22;26.60;;;12.77;;
62362;SDS011;48396;48.426;1.500;2022-12-18T12:46:54;24.45;;;11.80;;
62362;SDS011;48396;48.426;1.500;2022-12-18T12:49:25;29.58;;;14.43;;
62362;SDS011;48396;48.426;1.500;2022-12-18T12:52:04;28.40;;;13.60;;
62362;SDS011;48396;48.426;1.500;2022-12-18T12:54:37;27.80;;;13.05;;
62362;SDS011;48396;48.426;1.500;2022-12-18T13:02:52;29.00;;;14.52;;
62362;SDS011;48396;48.426;1.500;2022-12-18T13:05:42;31.80;;;14.88;;
62362;SDS011;48396;48.426;1.500;2022-12-18T13:08:22;28.17;;;14.20;;
62362;SDS011;48396;48.426;1.500;2022-12-18T13:10:50;29.30;;;14.13;;
62362;SDS011;48396;48.426;1.500;2022-12-18T13:16:44;26.48;;;13.77;;
62362;SDS011;48396;48.426;1.500;2022-12-18T13:19:18;26.35;;;13.18;;
62362;SDS011;48396;48.426;1.500;2022-12-18T13:21:52;29.83;;;13.95;;
62362;SDS011;48396;48.426;1.500;2022-12-18T13:24:24;26.80;;;12.85;;
62362;SDS011;48396;48.426;1.500;2022-12-18T13:26:52;26.35;;;13.20;;
62362;SDS011;48396;48.426;1.500;2022-12-18T13:32:18;27.20;;;11.93;;
62362;SDS011;48396;48.426;1.500;2022-12-18T13:37:53;24.80;;;11.90;;
62362;SDS011;48396;48.426;1.500;2022-12-18T13:43:15;29.73;;;13.32;;
62362;SDS011;48396;48.426;1.500;2022-12-18T13:45:45;24.85;;;13.23;;
62362;SDS011;48396;48.426;1.500;2022-12-18T13:48:32;29.52;;;14.57;;
62362;SDS011;48396;48.426;1.500;2022-12-18T13:51:07;27.60;;;13.05;;
62362;SDS011;48396;48.426;1.500;2022-12-18T13:53:37;27.95;;;13.02;;
62362;SDS011;48396;48.426;1.500;2022-12-18T13:56:08;27.25;;;12.80;;
62362;SDS011;48396;48.426;1.500;2022-12-18T13:58:34;25.92;;;12.40;;
62362;SDS011;48396;48.426;1.500;2022-12-18T14:01:00;28.10;;;13.07;;
62362;SDS011;48396;48.426;1.500;2022-12-18T14:03:28;28.25;;;14.05;;
62362;SDS011;48396;48.426;1.500;2022-12-18T14:06:05;25.48;;;12.63;;
62362;SDS011;48396;48.426;1.500;2022-12-18T14:08:36;25.35;;;12.48;;
62362;SDS011;48396;48.426;1.500;2022-12-18T14:11:06;24.05;;;12.00;;
62362;SDS011;48396;48.426;1.500;2022-12-18T14:13:43;26.40;;;12.52;;
62362;SDS011;48396;48.426;1.500;2022-12-18T14:16:11;28.35;;;14.18;;
62362;SDS011;48396;48.426;1.500;2022-12-18T14:18:45;28.60;;;13.10;;
62362;SDS011;48396;48.426;1.500;2022-12-18T14:21:20;28.08;;;13.65;;
62362;SDS011;48396;48.426;1.500;2022-12-18T14:24:02;26.52;;;12.93;;
62362;SDS011;48396;48.426;1.500;2022-12-18T14:26:46;26.35;;;12.50;;
62362;SDS011;48396;48.426;1.500;2022-12-18T14:29:29;27.92;;;13.07;;
62362;SDS011;48396;48.426;1.500;2022-12-18T14:32:11;23.95;;;11.25;;
62362;SDS011;48396;48.426;1.500;2022-12-18T14:34:42;24.48;;;10.90;;
62362;SDS011;48396;48.426;1.500;2022-12-18T14:37:16;26.38;;;12.32;;
62362;SDS011;48396;48.426;1.500;2022-12-18T14:40:05;25.23;;;12.13;;
62362;SDS011;48396;48.426;1.500;2022-12-18T14:42:31;24.88;;;11.32;;
62362;SDS011;48396;48.426;1.500;2022-12-18T14:48:06;23.38;;;10.57;;
62362;SDS011;48396;48.426;1.500;2022-12-18T14:50:33;24.80;;;11.95;;
62362;SDS011;48396;48.426;1.500;2022-12-18T14:52:59;22.52;;;10.60;;
62362;SDS011;48396;48.426;1.500;2022-12-18T14:55:25;23.95;;;12.10;;
62362;SDS011;48396;48.426;1.500;2022-12-18T14:57:52;24.90;;;11.32;;
62362;SDS011;48396;48.426;1.500;2022-12-18T15:00:21;25.52;;;11.48;;
62362;SDS011;48396;48.426;1.500;2022-12-18T15:02:53;24.00;;;11.38;;
62362;SDS011;48396;48.426;1.500;2022-12-18T15:05:30;21.02;;;10.45;;
62362;SDS011;48396;48.426;1.500;2022-12-18T15:07:57;22.25;;;10.55;;
62362;SDS011;48396;48.426;1.500;2022-12-18T15:10:25;21.50;;;10.90;;
62362;SDS011;48396;48.426;1.500;2022-12-18T15:23:24;22.77;;;11.20;;
62362;SDS011;48396;48.426;1.500;2022-12-18T15:25:58;24.77;;;10.93;;
62362;SDS011;48396;48.426;1.500;2022-12-18T15:28:27;22.83;;;11.05;;
62362;SDS011;48396;48.426;1.500;2022-12-18T15:33:29;22.35;;;10.73;;
62362;SDS011;48396;48.426;1.500;2022-12-18T15:36:02;25.08;;;12.13;;
62362;SDS011;48396;48.426;1.500;2022-12-18T15:38:30;24.10;;;11.00;;
62362;SDS011;48396;48.426;1.500;2022-12-18T15:40:56;23.48;;;11.15;;
62362;SDS011;48396;48.426;1.500;2022-12-18T15:43:23;24.88;;;12.15;;
62362;SDS011;48396;48.426;1.500;2022-12-18T15:46:14;22.42;;;10.63;;
62362;SDS011;48396;48.426;1.500;2022-12-18T15:48:44;23.00;;;11.32;;
62362;SDS011;48396;48.426;1.500;2022-12-18T15:53:42;22.65;;;10.50;;
62362;SDS011;48396;48.426;1.500;2022-12-18T15:56:12;22.70;;;10.25;;
62362;SDS011;48396;48.426;1.500;2022-12-18T15:58:58;21.58;;;10.10;;
62362;SDS011;48396;48.426;1.500;2022-12-18T16:01:29;23.35;;;11.07;;
62362;SDS011;48396;48.426;1.500;2022-12-18T16:03:56;21.60;;;10.68;;
62362;SDS011;48396;48.426;1.500;2022-12-18T16:06:22;22.35;;;10.07;;
62362;SDS011;48396;48.426;1.500;2022-12-18T16:08:49;21.90;;;9.95;;
62362;SDS011;48396;48.426;1.500;2022-12-18T16:11:25;21.90;;;11.05;;
62362;SDS011;48396;48.426;1.500;2022-12-18T16:16:43;23.40;;;10.65;;
62362;SDS011;48396;48.426;1.500;2022-12-18T16:19:09;23.77;;;11.18;;
62362;SDS011;48396;48.426;1.500;2022-12-18T16:21:35;24.80;;;11.52;;
62362;SDS011;48396;48.426;1.500;2022-12-18T16:24:01;23.90;;;11.40;;
62362;SDS011;48396;48.426;1.500;2022-12-18T16:26:27;23.27;;;11.02;;
62362;SDS011;48396;48.426;1.500;2022-12-18T16:28:53;19.38;;;9.10;;
62362;SDS011;48396;48.426;1.500;2022-12-18T16:31:19;21.10;;;9.75;;
62362;SDS011;48396;48.426;1.500;2022-12-18T16:33:45;20.33;;;9.38;;
62362;SDS011;48396;48.426;1.500;2022-12-18T16:36:11;20.30;;;9.27;;
62362;SDS011;48396;48.426;1.500;2022-12-18T16:38:37;21.40;;;9.27;;